Time;durP1;ratioP1;P1;durP2;ratioP2;P2;SDS_P1;SDS_P2;PMS_P1;PMS_P2;Temp;Humidity;BMP_temperature;BMP_pressure;BME280_temperature;BME280_humidity;BME280_pressure;Samples;Min_cycle;Max_cycle;Signal;HPM_P1;HPM_P2
2023/11/18 00:02:19;;;;;;;215.47;58.70;;;;;;;;;;4926603;29;20028;-67
2023/11/18 00:04:44;;;;;;;329.13;59.70;;;;;;;;;;4927832;29;20036;-67
2023/11/18 00:07:09;;;;;;;226.77;56.47;;;;;;;;;;4926424;29;20498;-66
2023/11/18 00:09:34;;;;;;;210.57;56.13;;;;;;;;;;4926397;29;20024;-67
2023/11/18 00:12:00;;;;;;;237.83;54.63;;;;;;;;;;4925754;29;20465;-67
2023/11/18 00:14:25;;;;;;;186.80;50.80;;;;;;;;;;4928228;29;20477;-66
2023/11/18 00:16:50;;;;;;;170.77;51.27;;;;;;;;;;4929457;29;20019;-67
2023/11/18 00:19:15;;;;;;;185.13;51.90;;;;;;;;;;4932170;29;20030;-66
2023/11/18 00:21:41;;;;;;;306.63;53.40;;;;;;;;;;4929215;29;20366;-66
2023/11/18 00:24:07;;;;;;;181.63;51.57;;;;;;;;;;4927879;29;20489;-66
2023/11/18 00:26:33;;;;;;;244.73;54.30;;;;;;;;;;4928086;29;20023;-66
2023/11/18 00:29:00;;;;;;;189.83;52.73;;;;;;;;;;4927978;29;20020;-66
2023/11/18 00:31:25;;;;;;;280.90;54.40;;;;;;;;;;4927998;29;20020;-66
2023/11/18 00:33:50;;;;;;;316.07;55.60;;;;;;;;;;4928092;29;20094;-65
2023/11/18 00:36:16;;;;;;;411.53;57.07;;;;;;;;;;4927871;29;20031;-64
2023/11/18 00:38:41;;;;;;;362.03;55.77;;;;;;;;;;4927729;29;20048;-64
2023/11/18 00:41:06;;;;;;;392.27;54.90;;;;;;;;;;4928944;29;20024;-64
2023/11/18 00:43:32;;;;;;;205.67;51.83;;;;;;;;;;4927986;29;20081;-65
2023/11/18 00:45:59;;;;;;;358.20;58.87;;;;;;;;;;4927590;29;20460;-64
2023/11/18 00:48:24;;;;;;;573.77;64.43;;;;;;;;;;4927594;29;20030;-65
2023/11/18 00:50:49;;;;;;;435.13;57.87;;;;;;;;;;4927923;29;20032;-63
2023/11/18 00:53:14;;;;;;;406.57;56.00;;;;;;;;;;4927503;29;20438;-64
2023/11/18 00:55:41;;;;;;;715.87;71.20;;;;;;;;;;4927614;29;20094;-65
2023/11/18 00:58:06;;;;;;;551.27;63.83;;;;;;;;;;4927462;29;20019;-64
2023/11/18 01:00:31;;;;;;;302.77;51.63;;;;;;;;;;4927598;29;20030;-65
2023/11/18 01:02:56;;;;;;;341.47;55.57;;;;;;;;;;4927387;29;20024;-64
2023/11/18 01:05:22;;;;;;;379.03;57.00;;;;;;;;;;4927439;29;20028;-64
2023/11/18 01:07:47;;;;;;;317.90;54.77;;;;;;;;;;4927317;29;20050;-64
2023/11/18 01:10:13;;;;;;;176.73;50.33;;;;;;;;;;4927273;29;20022;-63
2023/11/18 01:12:38;;;;;;;193.37;51.53;;;;;;;;;;4926101;29;20016;-64
2023/11/18 01:15:04;;;;;;;203.23;51.23;;;;;;;;;;4926219;29;20110;-64
2023/11/18 01:17:31;;;;;;;192.07;51.73;;;;;;;;;;4926980;29;20094;-65
2023/11/18 01:19:56;;;;;;;187.80;52.60;;;;;;;;;;4926088;29;20039;-64
2023/11/18 01:22:21;;;;;;;191.30;52.87;;;;;;;;;;4926416;29;20027;-64
2023/11/18 01:24:47;;;;;;;195.90;53.90;;;;;;;;;;4927361;29;20028;-64
2023/11/18 01:27:12;;;;;;;187.33;52.33;;;;;;;;;;4926875;29;20028;-63
2023/11/18 01:29:39;;;;;;;191.60;51.97;;;;;;;;;;4927382;29;20091;-64
2023/11/18 01:32:08;;;;;;;190.70;52.60;;;;;;;;;;4921418;29;20035;-64
2023/11/18 01:34:34;;;;;;;198.90;52.87;;;;;;;;;;4927205;29;20062;-63
2023/11/18 01:36:59;;;;;;;218.93;55.37;;;;;;;;;;4926832;29;20305;-65
2023/11/18 01:39:26;;;;;;;218.67;56.10;;;;;;;;;;4925481;29;20034;-64
2023/11/18 01:41:51;;;;;;;216.70;55.13;;;;;;;;;;4926668;29;20789;-63
2023/11/18 01:44:19;;;;;;;207.57;54.90;;;;;;;;;;4929855;29;20114;-66
2023/11/18 01:46:45;;;;;;;201.87;53.50;;;;;;;;;;4921203;29;20035;-66
2023/11/18 01:49:10;;;;;;;214.27;53.30;;;;;;;;;;4927105;29;20381;-66
2023/11/18 01:51:36;;;;;;;205.10;54.50;;;;;;;;;;4926545;29;20516;-66
2023/11/18 01:54:02;;;;;;;217.80;53.77;;;;;;;;;;4928070;29;20034;-66
2023/11/18 01:56:28;;;;;;;212.73;52.57;;;;;;;;;;4935164;29;20071;-66
2023/11/18 01:58:53;;;;;;;217.73;53.50;;;;;;;;;;4930275;29;20059;-66
2023/11/18 02:01:19;;;;;;;212.47;54.43;;;;;;;;;;4928642;29;20039;-66
2023/11/18 02:03:44;;;;;;;219.67;53.63;;;;;;;;;;4929530;29;20040;-66
2023/11/18 02:06:10;;;;;;;210.23;52.73;;;;;;;;;;4929891;29;20441;-66
2023/11/18 02:08:36;;;;;;;206.13;53.00;;;;;;;;;;4930406;29;20505;-66
2023/11/18 02:11:11;;;;;;;206.00;51.50;;;;;;;;;;4930445;29;20428;-66
2023/11/18 02:13:38;;;;;;;200.83;50.30;;;;;;;;;;4927823;29;20030;-65
2023/11/18 02:16:04;;;;;;;198.80;51.63;;;;;;;;;;4931021;29;20040;-66
2023/11/18 02:18:29;;;;;;;191.10;50.30;;;;;;;;;;4931765;29;20468;-66
2023/11/18 02:20:57;;;;;;;200.83;52.47;;;;;;;;;;4929511;29;20032;-66
2023/11/18 02:23:23;;;;;;;223.57;53.93;;;;;;;;;;4930558;29;20394;-66
2023/11/18 02:25:49;;;;;;;207.10;52.80;;;;;;;;;;4930293;29;20087;-66
2023/11/18 02:28:14;;;;;;;220.67;53.63;;;;;;;;;;4930295;29;20031;-66
2023/11/18 02:30:42;;;;;;;220.37;54.17;;;;;;;;;;4930286;29;20111;-66
2023/11/18 02:33:14;;;;;;;215.50;52.57;;;;;;;;;;4930345;29;20015;-66
2023/11/18 02:35:52;;;;;;;220.77;52.30;;;;;;;;;;4926371;29;20131;-66
2023/11/18 02:38:19;;;;;;;232.03;55.60;;;;;;;;;;4925624;29;20505;-66
2023/11/18 02:40:45;;;;;;;239.77;54.67;;;;;;;;;;4930297;29;20032;-65
2023/11/18 02:43:10;;;;;;;329.97;59.40;;;;;;;;;;4927986;29;20492;-66
2023/11/18 02:45:36;;;;;;;654.10;74.00;;;;;;;;;;4930086;29;20087;-66
2023/11/18 02:48:02;;;;;;;490.33;64.80;;;;;;;;;;4929716;29;20047;-66
2023/11/18 02:50:27;;;;;;;541.63;67.07;;;;;;;;;;4929456;29;20499;-67
2023/11/18 02:52:53;;;;;;;577.83;69.03;;;;;;;;;;4929910;29;20032;-66
2023/11/18 02:55:18;;;;;;;533.00;63.93;;;;;;;;;;4929963;29;20064;-66
2023/11/18 02:57:43;;;;;;;496.13;62.73;;;;;;;;;;4929322;29;20063;-66
2023/11/18 03:00:18;;;;;;;510.20;65.63;;;;;;;;;;4929395;29;20098;-66
2023/11/18 03:02:43;;;;;;;512.87;62.93;;;;;;;;;;4928771;29;20082;-65
2023/11/18 03:05:11;;;;;;;432.13;59.07;;;;;;;;;;4928866;29;20039;-66
2023/11/18 03:07:37;;;;;;;521.17;65.30;;;;;;;;;;4928798;29;20038;-66
2023/11/18 03:10:03;;;;;;;525.03;66.17;;;;;;;;;;4929311;29;20008;-66
2023/11/18 03:12:28;;;;;;;515.70;65.20;;;;;;;;;;4929641;29;20012;-66
2023/11/18 03:14:53;;;;;;;776.33;73.57;;;;;;;;;;4929299;29;20084;-65
2023/11/18 03:17:20;;;;;;;427.93;56.87;;;;;;;;;;4929434;29;20059;-66
2023/11/18 03:19:45;;;;;;;443.97;58.50;;;;;;;;;;4929360;29;20293;-65
2023/11/18 03:22:10;;;;;;;524.97;63.23;;;;;;;;;;4928085;29;20035;-66
2023/11/18 03:24:35;;;;;;;477.60;60.33;;;;;;;;;;4928913;29;20543;-66
2023/11/18 03:27:00;;;;;;;405.20;57.10;;;;;;;;;;4929313;29;20465;-66
2023/11/18 03:29:26;;;;;;;521.27;63.57;;;;;;;;;;4929370;29;20358;-65
2023/11/18 03:31:51;;;;;;;605.13;64.90;;;;;;;;;;4926066;29;20496;-66
2023/11/18 03:34:16;;;;;;;499.93;58.83;;;;;;;;;;4929127;29;20489;-65
2023/11/18 03:36:44;;;;;;;444.87;56.40;;;;;;;;;;4927597;29;20473;-66
2023/11/18 03:39:10;;;;;;;454.03;56.03;;;;;;;;;;4928985;29;20527;-65
2023/11/18 03:41:37;;;;;;;386.30;53.83;;;;;;;;;;4923874;29;20044;-66
2023/11/18 03:44:02;;;;;;;326.50;50.17;;;;;;;;;;4926163;29;20086;-66
2023/11/18 03:46:34;;;;;;;331.80;48.60;;;;;;;;;;4911590;29;20425;-66
2023/11/18 03:48:59;;;;;;;320.48;47.90;;;;;;;;;;4928895;29;20404;-65
2023/11/18 03:51:24;;;;;;;396.43;51.40;;;;;;;;;;4928523;29;20028;-66
2023/11/18 03:53:50;;;;;;;379.20;49.73;;;;;;;;;;4929345;29;20038;-66
2023/11/18 03:56:19;;;;;;;365.67;51.53;;;;;;;;;;4930761;29;20030;-65
2023/11/18 03:58:44;;;;;;;394.90;51.83;;;;;;;;;;4928182;29;20039;-66
2023/11/18 04:01:11;;;;;;;452.53;54.27;;;;;;;;;;4911019;29;20090;-66
2023/11/18 04:03:36;;;;;;;381.63;52.87;;;;;;;;;;4928652;29;20098;-66
2023/11/18 04:06:03;;;;;;;459.10;56.60;;;;;;;;;;4928417;29;20040;-66
2023/11/18 04:08:28;;;;;;;418.67;52.70;;;;;;;;;;4927798;29;20019;-66
2023/11/18 04:10:54;;;;;;;405.03;52.13;;;;;;;;;;4926614;29;20241;-66
2023/11/18 04:13:19;;;;;;;368.20;52.87;;;;;;;;;;4926618;29;20028;-66
2023/11/18 04:15:45;;;;;;;458.70;57.27;;;;;;;;;;4928104;29;20102;-66
2023/11/18 04:18:10;;;;;;;398.33;52.50;;;;;;;;;;4928572;29;20020;-66
2023/11/18 04:20:36;;;;;;;399.03;53.87;;;;;;;;;;4928160;29;20031;-66
2023/11/18 04:23:02;;;;;;;379.53;52.93;;;;;;;;;;4926815;29;20024;-66
2023/11/18 04:25:27;;;;;;;442.10;54.97;;;;;;;;;;4928616;29;20429;-66
2023/11/18 04:27:52;;;;;;;419.87;56.40;;;;;;;;;;4927935;29;20264;-66
2023/11/18 04:30:18;;;;;;;390.77;53.07;;;;;;;;;;4927893;29;20024;-66
2023/11/18 04:32:43;;;;;;;410.00;53.60;;;;;;;;;;4927856;29;20095;-66
2023/11/18 04:35:08;;;;;;;373.77;51.17;;;;;;;;;;4931038;29;20030;-66
2023/11/18 04:37:34;;;;;;;389.60;52.63;;;;;;;;;;4926593;29;20582;-65
2023/11/18 04:40:00;;;;;;;408.00;55.47;;;;;;;;;;4924672;29;20547;-66
2023/11/18 04:42:25;;;;;;;604.83;63.73;;;;;;;;;;4927527;29;20564;-66
2023/11/18 04:44:50;;;;;;;402.67;53.20;;;;;;;;;;4928069;29;20074;-66
2023/11/18 04:47:18;;;;;;;492.33;60.60;;;;;;;;;;4924601;29;20031;-66
2023/11/18 04:49:44;;;;;;;507.90;59.77;;;;;;;;;;4926965;29;20059;-66
2023/11/18 04:52:10;;;;;;;457.37;54.27;;;;;;;;;;4927215;29;20028;-66
2023/11/18 04:54:35;;;;;;;452.50;56.70;;;;;;;;;;4926721;29;20542;-66
2023/11/18 04:57:01;;;;;;;390.60;52.17;;;;;;;;;;4924838;29;20027;-66
2023/11/18 04:59:26;;;;;;;471.37;60.77;;;;;;;;;;4925863;29;20031;-66
2023/11/18 05:01:52;;;;;;;402.53;54.57;;;;;;;;;;4926734;29;20110;-66
2023/11/18 05:04:18;;;;;;;399.20;51.43;;;;;;;;;;4924671;29;20055;-66
2023/11/18 05:06:43;;;;;;;382.33;54.17;;;;;;;;;;4926606;29;20090;-66
2023/11/18 05:09:08;;;;;;;451.50;57.93;;;;;;;;;;4926493;29;20477;-66
2023/11/18 05:11:34;;;;;;;365.30;47.43;;;;;;;;;;4927515;29;20485;-66
2023/11/18 05:14:00;;;;;;;356.00;53.93;;;;;;;;;;4927677;29;20043;-66
2023/11/18 05:16:25;;;;;;;440.07;56.60;;;;;;;;;;4927539;29;20328;-67
2023/11/18 05:18:51;;;;;;;400.73;54.07;;;;;;;;;;4926759;29;20090;-66
2023/11/18 05:21:16;;;;;;;363.67;52.40;;;;;;;;;;4926896;29;20123;-66
2023/11/18 05:23:41;;;;;;;383.03;53.30;;;;;;;;;;4926448;29;20031;-66
2023/11/18 05:26:07;;;;;;;394.20;54.30;;;;;;;;;;4925106;29;20504;-66
2023/11/18 05:28:32;;;;;;;347.07;53.43;;;;;;;;;;4926075;29;20703;-66
2023/11/18 05:31:04;;;;;;;322.50;49.23;;;;;;;;;;4927240;29;20500;-66
2023/11/18 05:33:30;;;;;;;339.53;51.37;;;;;;;;;;4922576;29;20460;-66
2023/11/18 05:35:55;;;;;;;354.90;55.70;;;;;;;;;;4925009;29;20533;-66
2023/11/18 05:38:26;;;;;;;341.80;52.73;;;;;;;;;;4924424;29;20028;-65
2023/11/18 05:40:59;;;;;;;459.08;57.47;;;;;;;;;;4926890;29;20473;-66
2023/11/18 05:43:27;;;;;;;299.40;45.33;;;;;;;;;;4907795;29;20032;-66
2023/11/18 05:46:14;;;;;;;464.93;55.90;;;;;;;;;;4907460;29;20481;-66
2023/11/18 05:48:39;;;;;;;256.57;45.70;;;;;;;;;;4908323;29;20020;-66
2023/11/18 05:51:05;;;;;;;349.37;49.47;;;;;;;;;;4908211;29;20124;-66
2023/11/18 05:53:30;;;;;;;407.20;49.37;;;;;;;;;;4908226;29;20078;-65
2023/11/18 05:55:56;;;;;;;430.87;53.10;;;;;;;;;;4907933;29;20051;-66
2023/11/18 05:58:21;;;;;;;573.13;59.87;;;;;;;;;;4907651;29;20045;-66
2023/11/18 06:00:47;;;;;;;455.93;51.73;;;;;;;;;;4908296;29;20028;-66
2023/11/18 06:03:12;;;;;;;479.20;52.03;;;;;;;;;;4911207;29;20025;-65
2023/11/18 06:05:38;;;;;;;318.63;45.77;;;;;;;;;;4907747;29;20035;-66
2023/11/18 06:08:04;;;;;;;383.60;46.30;;;;;;;;;;4908065;29;20016;-66
2023/11/18 06:10:31;;;;;;;337.37;46.23;;;;;;;;;;4908055;29;20380;-66
2023/11/18 06:12:58;;;;;;;400.80;48.80;;;;;;;;;;4907712;29;20544;-66
2023/11/18 06:15:23;;;;;;;360.40;49.57;;;;;;;;;;4907862;29;20059;-66
2023/11/18 06:17:48;;;;;;;282.73;41.47;;;;;;;;;;4913099;29;20481;-66
2023/11/18 06:20:14;;;;;;;432.77;52.07;;;;;;;;;;4907877;29;20024;-66
2023/11/18 06:22:39;;;;;;;441.17;50.77;;;;;;;;;;4914670;29;20031;-67
2023/11/18 06:25:07;;;;;;;310.47;43.37;;;;;;;;;;4907868;29;20012;-66
2023/11/18 06:27:32;;;;;;;365.80;46.30;;;;;;;;;;4907800;29;20237;-66
2023/11/18 06:29:57;;;;;;;328.37;42.40;;;;;;;;;;4907514;29;20452;-66
2023/11/18 06:32:25;;;;;;;255.87;35.20;;;;;;;;;;4907249;29;20068;-65
2023/11/18 06:34:50;;;;;;;308.67;39.93;;;;;;;;;;4907615;29;20052;-66
2023/11/18 06:37:16;;;;;;;251.33;37.43;;;;;;;;;;4904403;29;20021;-66
2023/11/18 06:39:44;;;;;;;221.17;36.10;;;;;;;;;;4908025;29;20389;-66
2023/11/18 06:42:11;;;;;;;302.33;37.90;;;;;;;;;;4920318;29;20050;-66
2023/11/18 06:44:36;;;;;;;332.53;40.27;;;;;;;;;;4930046;29;20452;-66
2023/11/18 06:47:02;;;;;;;396.10;48.20;;;;;;;;;;4930141;29;20052;-66
2023/11/18 06:49:29;;;;;;;416.37;50.33;;;;;;;;;;4929705;29;20020;-66
2023/11/18 06:51:54;;;;;;;301.53;40.87;;;;;;;;;;4929777;29;20023;-66
2023/11/18 06:54:20;;;;;;;295.47;42.33;;;;;;;;;;4929923;29;20463;-66
2023/11/18 06:56:45;;;;;;;272.40;41.27;;;;;;;;;;4929738;29;20078;-66
2023/11/18 06:59:12;;;;;;;357.03;43.37;;;;;;;;;;4929697;29;20171;-66
2023/11/18 07:01:37;;;;;;;266.23;38.60;;;;;;;;;;4929969;29;20031;-67
2023/11/18 07:04:03;;;;;;;394.10;45.87;;;;;;;;;;4929780;29;20392;-67
2023/11/18 07:06:28;;;;;;;265.47;40.40;;;;;;;;;;4929539;29;20063;-67
2023/11/18 07:08:55;;;;;;;300.97;38.47;;;;;;;;;;4929378;29;20425;-67
2023/11/18 07:11:20;;;;;;;258.07;38.27;;;;;;;;;;4929711;29;20023;-66
2023/11/18 07:13:47;;;;;;;256.00;36.70;;;;;;;;;;4929571;29;20469;-67
2023/11/18 07:16:14;;;;;;;307.77;39.07;;;;;;;;;;4929468;29;20579;-67
2023/11/18 07:18:39;;;;;;;256.83;40.10;;;;;;;;;;4929121;29;20111;-67
2023/11/18 07:21:05;;;;;;;195.97;36.20;;;;;;;;;;4929547;29;20107;-67
2023/11/18 07:23:31;;;;;;;245.10;38.10;;;;;;;;;;4929136;29;20024;-66
2023/11/18 07:25:57;;;;;;;177.20;32.67;;;;;;;;;;4929515;29;20030;-66
2023/11/18 07:28:22;;;;;;;188.60;33.13;;;;;;;;;;4929144;29;20405;-66
2023/11/18 07:30:48;;;;;;;189.80;31.00;;;;;;;;;;4929223;29;20030;-67
2023/11/18 07:33:16;;;;;;;191.90;30.17;;;;;;;;;;4928935;29;20692;-66
2023/11/18 07:35:46;;;;;;;171.73;29.13;;;;;;;;;;4929509;29;20542;-64
2023/11/18 07:38:11;;;;;;;80.77;17.17;;;;;;;;;;4928984;29;20027;-64
2023/11/18 07:40:42;;;;;;;208.43;29.30;;;;;;;;;;4921131;29;20508;-65
2023/11/18 07:43:07;;;;;;;204.97;27.23;;;;;;;;;;4931738;29;20098;-64
2023/11/18 07:45:37;;;;;;;245.23;30.30;;;;;;;;;;4929151;29;20027;-65
2023/11/18 07:48:12;;;;;;;180.67;25.43;;;;;;;;;;4929052;29;20024;-64
2023/11/18 07:50:38;;;;;;;178.80;27.03;;;;;;;;;;4928568;29;20043;-64
2023/11/18 07:53:06;;;;;;;204.37;28.17;;;;;;;;;;4928210;29;20050;-63
2023/11/18 07:55:34;;;;;;;197.93;28.50;;;;;;;;;;4928804;29;20516;-64
2023/11/18 07:57:59;;;;;;;187.30;26.60;;;;;;;;;;4928895;29;20024;-64
2023/11/18 08:00:24;;;;;;;346.73;35.50;;;;;;;;;;4929465;29;20342;-64
2023/11/18 08:02:51;;;;;;;204.40;27.57;;;;;;;;;;4928821;29;20317;-64
2023/11/18 08:05:18;;;;;;;143.60;24.13;;;;;;;;;;4928974;29;20658;-64
2023/11/18 08:07:44;;;;;;;199.57;29.13;;;;;;;;;;4928658;29;20030;-64
2023/11/18 08:10:13;;;;;;;247.10;32.10;;;;;;;;;;4928316;29;20104;-64
2023/11/18 08:12:38;;;;;;;294.70;33.70;;;;;;;;;;4928865;29;20020;-65
2023/11/18 08:15:06;;;;;;;262.97;33.80;;;;;;;;;;4928188;29;20543;-64
2023/11/18 08:17:31;;;;;;;373.17;38.27;;;;;;;;;;4928154;29;20030;-64
2023/11/18 08:19:57;;;;;;;315.50;35.90;;;;;;;;;;4928512;29;20090;-65
2023/11/18 08:22:23;;;;;;;382.87;41.20;;;;;;;;;;4929350;29;20019;-65
2023/11/18 08:24:48;;;;;;;307.37;38.77;;;;;;;;;;4932565;29;20030;-64
2023/11/18 08:27:14;;;;;;;278.57;36.07;;;;;;;;;;4928128;29;20382;-64
2023/11/18 08:29:39;;;;;;;209.80;31.17;;;;;;;;;;4926853;29;20035;-65
2023/11/18 08:32:06;;;;;;;252.63;36.50;;;;;;;;;;4926162;29;20026;-64
2023/11/18 08:34:33;;;;;;;262.77;36.37;;;;;;;;;;4928097;29;20020;-64
2023/11/18 08:36:58;;;;;;;209.00;29.77;;;;;;;;;;4928099;29;20015;-64
2023/11/18 08:39:25;;;;;;;182.77;29.87;;;;;;;;;;4927946;29;20020;-65
2023/11/18 08:41:51;;;;;;;203.37;29.20;;;;;;;;;;4928102;29;20040;-63
2023/11/18 08:44:17;;;;;;;172.17;28.53;;;;;;;;;;4928080;29;20611;-64
2023/11/18 08:46:42;;;;;;;210.97;31.67;;;;;;;;;;4928013;29;20524;-64
2023/11/18 08:49:10;;;;;;;162.70;26.00;;;;;;;;;;4907849;29;20027;-65
2023/11/18 08:51:36;;;;;;;165.30;26.43;;;;;;;;;;4927996;29;20060;-64
2023/11/18 08:54:16;;;;;;;180.97;29.43;;;;;;;;;;4927840;29;20170;-64
2023/11/18 08:56:42;;;;;;;235.17;32.17;;;;;;;;;;4925417;29;20028;-64
2023/11/18 08:59:08;;;;;;;207.57;32.20;;;;;;;;;;4927986;29;20023;-63
2023/11/18 09:01:34;;;;;;;125.43;22.00;;;;;;;;;;4927860;29;20024;-64
2023/11/18 09:04:01;;;;;;;139.77;23.93;;;;;;;;;;4927639;29;20039;-64
2023/11/18 09:06:28;;;;;;;178.47;28.80;;;;;;;;;;4927677;29;20102;-64
2023/11/18 09:08:53;;;;;;;164.57;26.70;;;;;;;;;;4927565;29;20018;-64
2023/11/18 09:11:19;;;;;;;168.43;28.07;;;;;;;;;;4927570;29;20020;-65
2023/11/18 09:13:49;;;;;;;127.00;24.90;;;;;;;;;;4927552;29;20026;-64
2023/11/18 09:16:15;;;;;;;130.37;24.30;;;;;;;;;;4927965;29;20373;-64
2023/11/18 09:18:44;;;;;;;133.50;26.50;;;;;;;;;;4927279;29;20095;-64
2023/11/18 09:21:19;;;;;;;131.10;27.53;;;;;;;;;;4926714;29;20054;-65
2023/11/18 09:23:44;;;;;;;157.53;32.43;;;;;;;;;;4927019;29;20023;-64
2023/11/18 09:26:10;;;;;;;139.53;27.47;;;;;;;;;;4927217;29;20285;-65
2023/11/18 09:28:35;;;;;;;165.17;32.13;;;;;;;;;;4927402;29;20026;-64
2023/11/18 09:31:02;;;;;;;139.50;27.00;;;;;;;;;;4927014;29;20027;-64
2023/11/18 09:33:28;;;;;;;176.63;31.63;;;;;;;;;;4927515;29;20491;-64
2023/11/18 09:36:07;;;;;;;118.40;24.50;;;;;;;;;;4927723;29;20420;-64
2023/11/18 09:38:35;;;;;;;94.63;20.17;;;;;;;;;;4927292;29;20062;-64
2023/11/18 09:41:02;;;;;;;87.97;19.90;;;;;;;;;;4925351;29;20035;-64
2023/11/18 09:43:32;;;;;;;103.47;25.17;;;;;;;;;;4927390;29;20692;-64
2023/11/18 09:46:02;;;;;;;89.77;22.87;;;;;;;;;;4927147;29;20032;-64
2023/11/18 09:48:27;;;;;;;100.27;23.67;;;;;;;;;;4930395;29;20015;-64
2023/11/18 09:50:53;;;;;;;131.47;29.40;;;;;;;;;;4927429;29;20023;-65
2023/11/18 09:53:25;;;;;;;157.47;33.80;;;;;;;;;;4927030;29;20469;-63
2023/11/18 09:56:03;;;;;;;109.07;27.20;;;;;;;;;;4923197;29;20024;-63
2023/11/18 09:58:33;;;;;;;126.30;29.57;;;;;;;;;;4926925;29;20019;-65
2023/11/18 10:01:02;;;;;;;137.27;31.47;;;;;;;;;;4926936;29;20168;-64
2023/11/18 10:03:29;;;;;;;131.30;27.70;;;;;;;;;;4928077;29;20032;-64
2023/11/18 10:05:55;;;;;;;111.83;26.87;;;;;;;;;;4926958;29;20500;-63
2023/11/18 10:08:25;;;;;;;138.07;30.13;;;;;;;;;;4927005;29;20022;-64
2023/11/18 10:10:51;;;;;;;140.87;32.37;;;;;;;;;;4927314;29;20020;-63
2023/11/18 10:13:23;;;;;;;130.27;30.00;;;;;;;;;;4927126;29;20023;-63
2023/11/18 10:15:52;;;;;;;105.95;27.65;;;;;;;;;;4911980;29;20480;-63
2023/11/18 10:18:22;;;;;;;112.30;28.23;;;;;;;;;;4930431;29;20027;-64
2023/11/18 10:20:51;;;;;;;110.90;27.33;;;;;;;;;;4930662;29;20039;-63
2023/11/18 10:23:20;;;;;;;111.30;29.37;;;;;;;;;;4932969;29;20030;-64
2023/11/18 10:25:46;;;;;;;91.60;24.37;;;;;;;;;;4930424;29;20020;-64
2023/11/18 10:28:24;;;;;;;94.07;24.83;;;;;;;;;;4932513;29;20020;-63
2023/11/18 10:30:50;;;;;;;95.10;26.43;;;;;;;;;;4926131;29;20747;-65
2023/11/18 10:33:16;;;;;;;92.80;25.00;;;;;;;;;;4930130;29;20350;-64
2023/11/18 10:35:51;;;;;;;97.33;26.73;;;;;;;;;;4930806;29;20490;-65
2023/11/18 10:38:16;;;;;;;88.70;25.17;;;;;;;;;;4930566;29;20102;-63
2023/11/18 10:40:42;;;;;;;69.03;21.70;;;;;;;;;;4930411;29;20379;-64
2023/11/18 10:43:09;;;;;;;68.27;22.43;;;;;;;;;;4929992;29;20497;-64
2023/11/18 10:45:38;;;;;;;67.30;20.00;;;;;;;;;;4929760;29;20024;-64
2023/11/18 10:48:05;;;;;;;78.93;23.67;;;;;;;;;;4930205;29;20026;-64
2023/11/18 10:50:32;;;;;;;49.77;17.10;;;;;;;;;;4929530;29;20059;-65
2023/11/18 10:52:57;;;;;;;77.63;24.47;;;;;;;;;;4930268;29;20132;-64
2023/11/18 10:55:23;;;;;;;67.90;23.07;;;;;;;;;;4928420;29;20106;-64
2023/11/18 10:57:48;;;;;;;58.03;20.30;;;;;;;;;;4929853;29;20035;-64
2023/11/18 11:00:14;;;;;;;51.20;18.20;;;;;;;;;;4929807;29;20027;-64
2023/11/18 11:02:41;;;;;;;68.00;23.20;;;;;;;;;;4930330;29;20412;-63
2023/11/18 11:05:07;;;;;;;58.57;21.00;;;;;;;;;;4926674;29;20376;-64
2023/11/18 11:07:32;;;;;;;64.27;22.67;;;;;;;;;;4930305;29;20024;-63
2023/11/18 11:09:59;;;;;;;55.70;16.73;;;;;;;;;;4929943;29;20035;-64
2023/11/18 11:12:25;;;;;;;59.63;21.47;;;;;;;;;;4927526;29;20026;-64
2023/11/18 11:14:58;;;;;;;50.87;18.47;;;;;;;;;;4928088;29;20477;-64
2023/11/18 11:17:29;;;;;;;54.87;20.17;;;;;;;;;;4930000;29;20025;-63
2023/11/18 11:20:10;;;;;;;66.60;20.05;;;;;;;;;;4928127;29;20146;-63
2023/11/18 11:22:38;;;;;;;67.55;22.42;;;;;;;;;;4929569;29;20028;-64
2023/11/18 11:25:09;;;;;;;58.80;20.93;;;;;;;;;;4929409;29;20028;-65
2023/11/18 11:27:49;;;;;;;47.38;18.30;;;;;;;;;;4912223;29;20057;-65
2023/11/18 11:30:15;;;;;;;64.13;22.33;;;;;;;;;;4916597;29;20053;-65
2023/11/18 11:32:51;;;;;;;56.00;20.53;;;;;;;;;;4922078;29;20028;-66
2023/11/18 11:35:23;;;;;;;46.23;17.47;;;;;;;;;;4919827;29;20020;-64
2023/11/18 11:37:48;;;;;;;51.90;17.90;;;;;;;;;;4928889;29;20416;-63
2023/11/18 11:40:21;;;;;;;55.80;20.40;;;;;;;;;;4930035;29;20023;-63
2023/11/18 11:42:49;;;;;;;50.13;18.30;;;;;;;;;;4912243;29;20059;-63
2023/11/18 11:45:19;;;;;;;32.00;13.23;;;;;;;;;;4928805;29;20024;-64
2023/11/18 11:47:49;;;;;;;49.37;17.10;;;;;;;;;;4929772;29;20030;-64
2023/11/18 11:50:21;;;;;;;52.80;18.67;;;;;;;;;;4928852;29;20024;-63
2023/11/18 11:52:53;;;;;;;52.00;19.42;;;;;;;;;;4926651;29;20213;-64
2023/11/18 11:55:23;;;;;;;47.57;16.90;;;;;;;;;;4927928;29;20050;-64
2023/11/18 11:57:57;;;;;;;59.47;21.07;;;;;;;;;;4928742;28;20059;-64
2023/11/18 12:00:25;;;;;;;56.27;20.70;;;;;;;;;;4927292;29;20028;-64
2023/11/18 12:02:54;;;;;;;59.07;21.60;;;;;;;;;;4936855;29;20051;-64
2023/11/18 12:05:25;;;;;;;55.73;20.77;;;;;;;;;;4939149;29;20028;-65
2023/11/18 12:07:50;;;;;;;55.47;20.87;;;;;;;;;;4928919;29;20496;-64
2023/11/18 12:10:21;;;;;;;47.17;19.50;;;;;;;;;;4911395;29;20126;-64
2023/11/18 12:12:46;;;;;;;52.93;20.17;;;;;;;;;;4910651;29;20473;-63
2023/11/18 12:15:17;;;;;;;54.63;20.47;;;;;;;;;;4928459;29;20026;-67
2023/11/18 12:17:55;;;;;;;52.80;19.33;;;;;;;;;;4928184;29;20062;-68
2023/11/18 12:20:42;;;;;;;51.07;19.03;;;;;;;;;;4927631;29;20042;-68
2023/11/18 12:23:14;;;;;;;47.70;17.67;;;;;;;;;;4927149;29;20512;-68
2023/11/18 12:25:39;;;;;;;43.67;17.77;;;;;;;;;;4926258;29;20031;-66
2023/11/18 12:28:21;;;;;;;45.30;17.47;;;;;;;;;;4928678;29;20019;-67
2023/11/18 12:30:52;;;;;;;46.35;17.83;;;;;;;;;;4928283;29;20107;-68
2023/11/18 12:33:23;;;;;;;48.17;18.27;;;;;;;;;;4925454;29;20264;-68
2023/11/18 12:35:51;;;;;;;44.40;18.30;;;;;;;;;;4922985;29;20020;-69
2023/11/18 12:38:24;;;;;;;45.10;18.07;;;;;;;;;;4918267;29;20091;-67
2023/11/18 12:40:50;;;;;;;42.40;16.40;;;;;;;;;;4916519;29;20051;-69
2023/11/18 12:43:17;;;;;;;39.23;15.47;;;;;;;;;;4923699;29;20036;-68
2023/11/18 12:46:03;;;;;;;35.77;15.53;;;;;;;;;;4919193;29;20054;-68
2023/11/18 12:48:32;;;;;;;34.83;13.17;;;;;;;;;;4920836;29;20034;-67
2023/11/18 12:50:57;;;;;;;30.50;12.70;;;;;;;;;;4921206;28;20035;-67
2023/11/18 12:53:26;;;;;;;32.07;12.37;;;;;;;;;;4920385;29;20079;-67
2023/11/18 12:55:52;;;;;;;29.53;13.33;;;;;;;;;;4922794;29;20027;-67
2023/11/18 12:58:18;;;;;;;32.70;14.50;;;;;;;;;;4910743;29;20541;-67
2023/11/18 13:00:45;;;;;;;29.50;12.27;;;;;;;;;;4914101;29;20130;-68
2023/11/18 13:03:10;;;;;;;59.43;21.10;;;;;;;;;;4924330;29;20485;-67
2023/11/18 13:05:36;;;;;;;35.80;16.07;;;;;;;;;;4923710;29;20332;-67
2023/11/18 13:08:02;;;;;;;85.93;32.50;;;;;;;;;;4938297;29;20035;-68
2023/11/18 13:10:27;;;;;;;40.03;16.70;;;;;;;;;;4923721;29;20075;-67
2023/11/18 13:12:53;;;;;;;28.07;11.33;;;;;;;;;;4915799;29;20035;-68
2023/11/18 13:15:18;;;;;;;24.17;10.47;;;;;;;;;;4923614;29;20044;-68
2023/11/18 13:17:56;;;;;;;23.03;10.60;;;;;;;;;;4922317;29;20035;-67
2023/11/18 13:20:24;;;;;;;27.43;12.57;;;;;;;;;;4906550;29;20305;-69
2023/11/18 13:22:49;;;;;;;26.20;11.90;;;;;;;;;;4915495;29;20456;-67
2023/11/18 13:25:17;;;;;;;26.53;11.63;;;;;;;;;;4921406;29;20036;-64
2023/11/18 13:27:42;;;;;;;26.40;11.50;;;;;;;;;;4920453;29;20520;-65
2023/11/18 13:30:12;;;;;;;24.57;12.17;;;;;;;;;;4909778;29;20028;-64
2023/11/18 13:32:39;;;;;;;24.90;10.97;;;;;;;;;;4917182;29;20055;-64
2023/11/18 13:35:07;;;;;;;24.57;10.53;;;;;;;;;;4925689;29;20034;-64
2023/11/18 13:37:32;;;;;;;24.67;10.63;;;;;;;;;;4909699;29;20284;-65
2023/11/18 13:40:00;;;;;;;24.57;10.40;;;;;;;;;;4920516;29;20027;-64
2023/11/18 13:42:27;;;;;;;21.00;9.97;;;;;;;;;;4916410;29;20098;-64
2023/11/18 13:44:53;;;;;;;23.30;10.73;;;;;;;;;;4922992;29;20440;-66
2023/11/18 13:47:19;;;;;;;27.17;11.33;;;;;;;;;;4915786;29;20032;-63
2023/11/18 13:49:45;;;;;;;29.13;11.13;;;;;;;;;;4913427;29;20027;-64
2023/11/18 13:52:12;;;;;;;22.87;9.90;;;;;;;;;;4918741;29;20038;-64
2023/11/18 13:54:38;;;;;;;23.10;11.03;;;;;;;;;;4927493;29;20012;-64
2023/11/18 13:57:03;;;;;;;19.70;8.40;;;;;;;;;;4928210;29;20031;-66
2023/11/18 13:59:29;;;;;;;26.17;11.33;;;;;;;;;;4940549;29;20626;-66
2023/11/18 14:01:55;;;;;;;21.07;9.73;;;;;;;;;;4920676;29;20102;-65
2023/11/18 14:04:24;;;;;;;21.30;9.70;;;;;;;;;;4928687;29;20533;-65
2023/11/18 14:06:53;;;;;;;20.90;9.33;;;;;;;;;;4925030;29;20531;-65
2023/11/18 14:09:21;;;;;;;25.77;10.73;;;;;;;;;;4927616;29;20032;-65